sensor_id;sensor_type;location;lat;lon;timestamp;pressure;altitude;pressure_sealevel;temperature;humidity
70954;BME280;58618;47.490;8.736;2023-02-28T00:00:01;96824.72;;;-1.55;88.42
70954;BME280;58618;47.490;8.736;2023-02-28T00:02:35;96822.38;;;-1.57;89.28
70954;BME280;58618;47.490;8.736;2023-02-28T00:05:04;96856.72;;;-1.35;89.44
70954;BME280;58618;47.490;8.736;2023-02-28T00:07:32;96827.81;;;-1.53;89.14
70954;BME280;58618;47.490;8.736;2023-02-28T00:10:00;96843.47;;;-1.43;89.12
70954;BME280;58618;47.490;8.736;2023-02-28T00:12:28;96844.81;;;-1.41;88.87
70954;BME280;58618;47.490;8.736;2023-02-28T00:14:55;96815.38;;;-1.55;88.75
70954;BME280;58618;47.490;8.736;2023-02-28T00:17:22;96850.47;;;-1.32;88.73
70954;BME280;58618;47.490;8.736;2023-02-28T00:19:51;96844.25;;;-1.36;89.26
70954;BME280;58618;47.490;8.736;2023-02-28T00:22:20;96846.97;;;-1.38;89.25
70954;BME280;58618;47.490;8.736;2023-02-28T00:24:48;96834.47;;;-1.46;88.44
70954;BME280;58618;47.490;8.736;2023-02-28T00:27:16;96850.06;;;-1.42;89.24
70954;BME280;58618;47.490;8.736;2023-02-28T00:29:43;96814.00;;;-1.64;89.16
70954;BME280;58618;47.490;8.736;2023-02-28T00:32:10;96848.31;;;-1.42;89.47
70954;BME280;58618;47.490;8.736;2023-02-28T00:34:38;96818.47;;;-1.53;88.96
70954;BME280;58618;47.490;8.736;2023-02-28T00:37:07;96825.16;;;-1.45;88.76
70954;BME280;58618;47.490;8.736;2023-02-28T00:39:36;96842.34;;;-1.27;88.81
70954;BME280;58618;47.490;8.736;2023-02-28T00:42:04;96816.72;;;-1.59;88.94
70954;BME280;58618;47.490;8.736;2023-02-28T00:44:32;96846.00;;;-1.37;88.94
70954;BME280;58618;47.490;8.736;2023-02-28T00:47:00;96805.97;;;-1.67;89.08
70954;BME280;58618;47.490;8.736;2023-02-28T00:49:28;96844.22;;;-1.43;89.39
70954;BME280;58618;47.490;8.736;2023-02-28T00:51:55;96842.66;;;-1.44;89.86
70954;BME280;58618;47.490;8.736;2023-02-28T00:54:24;96839.75;;;-1.41;90.02
70954;BME280;58618;47.490;8.736;2023-02-28T00:56:51;96830.03;;;-1.44;90.23
70954;BME280;58618;47.490;8.736;2023-02-28T00:59:18;96829.03;;;-1.43;90.45
70954;BME280;58618;47.490;8.736;2023-02-28T01:01:46;96806.00;;;-1.61;89.25
70954;BME280;58618;47.490;8.736;2023-02-28T01:04:14;96831.34;;;-1.48;89.87
70954;BME280;58618;47.490;8.736;2023-02-28T01:06:41;96794.69;;;-1.72;89.27
70954;BME280;58618;47.490;8.736;2023-02-28T01:09:09;96832.56;;;-1.44;89.65
70954;BME280;58618;47.490;8.736;2023-02-28T01:11:38;96806.41;;;-1.64;89.38
70954;BME280;58618;47.490;8.736;2023-02-28T01:14:08;96831.34;;;-1.48;88.74
70954;BME280;58618;47.490;8.736;2023-02-28T01:16:35;96813.63;;;-1.54;89.05
70954;BME280;58618;47.490;8.736;2023-02-28T01:19:05;96828.28;;;-1.43;89.57
70954;BME280;58618;47.490;8.736;2023-02-28T01:21:32;96836.09;;;-1.38;88.99
70954;BME280;58618;47.490;8.736;2023-02-28T01:24:01;96815.81;;;-1.45;88.66
70954;BME280;58618;47.490;8.736;2023-02-28T01:26:29;96823.00;;;-1.48;89.47
70954;BME280;58618;47.490;8.736;2023-02-28T01:28:58;96814.22;;;-1.59;89.34
70954;BME280;58618;47.490;8.736;2023-02-28T01:31:25;96834.91;;;-1.36;89.70
70954;BME280;58618;47.490;8.736;2023-02-28T01:33:52;96829.41;;;-1.46;88.99
70954;BME280;58618;47.490;8.736;2023-02-28T01:36:21;96845.03;;;-1.36;89.27
70954;BME280;58618;47.490;8.736;2023-02-28T01:38:49;96845.03;;;-1.36;89.62
70954;BME280;58618;47.490;8.736;2023-02-28T01:41:20;96815.38;;;-1.55;89.39
70954;BME280;58618;47.490;8.736;2023-02-28T01:44:04;96813.22;;;-1.58;88.76
70954;BME280;58618;47.490;8.736;2023-02-28T01:46:34;96829.81;;;-1.49;88.82
70954;BME280;58618;47.490;8.736;2023-02-28T01:49:07;96787.66;;;-1.76;89.33
70954;BME280;58618;47.490;8.736;2023-02-28T01:51:39;96838.41;;;-1.43;89.63
70954;BME280;58618;47.490;8.736;2023-02-28T01:54:16;96807.59;;;-1.60;89.60
70954;BME280;58618;47.490;8.736;2023-02-28T01:56:45;96832.72;;;-1.45;89.26
70954;BME280;58618;47.490;8.736;2023-02-28T01:59:22;96798.81;;;-1.57;89.24
70954;BME280;58618;47.490;8.736;2023-02-28T02:01:52;96801.13;;;-1.62;88.85
70954;BME280;58618;47.490;8.736;2023-02-28T02:04:21;96822.63;;;-1.45;89.40
70954;BME280;58618;47.490;8.736;2023-02-28T02:06:50;96796.66;;;-1.67;89.21
70954;BME280;58618;47.490;8.736;2023-02-28T02:09:17;96811.88;;;-1.54;89.04
70954;BME280;58618;47.490;8.736;2023-02-28T02:11:45;96831.38;;;-1.41;88.97
70954;BME280;58618;47.490;8.736;2023-02-28T02:14:28;96821.63;;;-1.51;89.84
70954;BME280;58618;47.490;8.736;2023-02-28T02:17:08;96832.19;;;-1.34;90.05
70954;BME280;58618;47.490;8.736;2023-02-28T02:23:07;96828.69;;;-1.27;88.58
70954;BME280;58618;47.490;8.736;2023-02-28T02:25:45;96821.44;;;-1.43;88.70
70954;BME280;58618;47.490;8.736;2023-02-28T02:28:52;96830.84;;;-1.30;88.56
70954;BME280;58618;47.490;8.736;2023-02-28T02:31:47;96829.28;;;-1.38;89.25
70954;BME280;58618;47.490;8.736;2023-02-28T02:34:32;96789.50;;;-1.57;89.04
70954;BME280;58618;47.490;8.736;2023-02-28T02:37:11;96812.50;;;-1.45;88.92
70954;BME280;58618;47.490;8.736;2023-02-28T02:39:47;96821.69;;;-1.38;88.57
70954;BME280;58618;47.490;8.736;2023-02-28T02:42:21;96814.63;;;-1.42;88.81
70954;BME280;58618;47.490;8.736;2023-02-28T02:44:53;96806.06;;;-1.48;88.96
70954;BME280;58618;47.490;8.736;2023-02-28T02:47:24;96782.66;;;-1.63;89.12
70954;BME280;58618;47.490;8.736;2023-02-28T02:49:56;96800.41;;;-1.50;88.63
70954;BME280;58618;47.490;8.736;2023-02-28T02:52:29;96779.16;;;-1.62;89.54
70954;BME280;58618;47.490;8.736;2023-02-28T02:54:59;96769.44;;;-1.65;89.43
70954;BME280;58618;47.490;8.736;2023-02-28T02:57:31;96807.03;;;-1.49;89.02
70954;BME280;58618;47.490;8.736;2023-02-28T03:00:00;96771.75;;;-1.63;89.21
70954;BME280;58618;47.490;8.736;2023-02-28T03:02:31;96767.09;;;-1.66;88.94
70954;BME280;58618;47.490;8.736;2023-02-28T03:05:04;96817.38;;;-1.44;89.40
70954;BME280;58618;47.490;8.736;2023-02-28T03:07:33;96781.47;;;-1.67;89.63
70954;BME280;58618;47.490;8.736;2023-02-28T03:10:01;96803.91;;;-1.51;89.29
70954;BME280;58618;47.490;8.736;2023-02-28T03:12:32;96785.78;;;-1.61;89.93
70954;BME280;58618;47.490;8.736;2023-02-28T03:15:11;96786.38;;;-1.59;89.34
70954;BME280;58618;47.490;8.736;2023-02-28T03:18:00;96799.84;;;-1.45;89.63
70954;BME280;58618;47.490;8.736;2023-02-28T03:20:39;96792.06;;;-1.50;89.43
70954;BME280;58618;47.490;8.736;2023-02-28T03:23:16;96756.50;;;-1.83;89.60
70954;BME280;58618;47.490;8.736;2023-02-28T03:25:54;96763.56;;;-1.72;90.21
70954;BME280;58618;47.490;8.736;2023-02-28T03:28:31;96810.75;;;-1.45;89.85
70954;BME280;58618;47.490;8.736;2023-02-28T03:31:03;96807.66;;;-1.40;89.20
70954;BME280;58618;47.490;8.736;2023-02-28T03:33:39;96801.00;;;-1.54;89.10
70954;BME280;58618;47.490;8.736;2023-02-28T03:36:13;96802.94;;;-1.50;90.02
70954;BME280;58618;47.490;8.736;2023-02-28T03:38:46;96785.94;;;-1.69;90.31
70954;BME280;58618;47.490;8.736;2023-02-28T03:41:17;96782.44;;;-1.68;89.68
70954;BME280;58618;47.490;8.736;2023-02-28T03:43:49;96763.13;;;-1.82;89.49
70954;BME280;58618;47.490;8.736;2023-02-28T03:46:21;96805.63;;;-1.58;89.15
70954;BME280;58618;47.490;8.736;2023-02-28T03:48:53;96775.38;;;-1.79;89.65
70954;BME280;58618;47.490;8.736;2023-02-28T03:51:25;96823.19;;;-1.50;89.05
70954;BME280;58618;47.490;8.736;2023-02-28T03:53:56;96780.31;;;-1.71;89.84
70954;BME280;58618;47.490;8.736;2023-02-28T03:56:30;96821.22;;;-1.54;89.69
70954;BME280;58618;47.490;8.736;2023-02-28T03:59:04;96817.31;;;-1.57;90.06
70954;BME280;58618;47.490;8.736;2023-02-28T04:01:35;96821.63;;;-1.51;89.76
70954;BME280;58618;47.490;8.736;2023-02-28T04:04:04;96807.22;;;-1.50;89.34
70954;BME280;58618;47.490;8.736;2023-02-28T04:06:34;96810.69;;;-1.58;89.92
70954;BME280;58618;47.490;8.736;2023-02-28T04:09:01;96816.13;;;-1.61;88.84
70954;BME280;58618;47.490;8.736;2023-02-28T04:11:32;96822.56;;;-1.52;89.01
70954;BME280;58618;47.490;8.736;2023-02-28T04:14:00;96822.22;;;-1.49;89.23
70954;BME280;58618;47.490;8.736;2023-02-28T04:16:28;96817.91;;;-1.55;89.30
70954;BME280;58618;47.490;8.736;2023-02-28T04:18:55;96820.44;;;-1.55;89.13
70954;BME280;58618;47.490;8.736;2023-02-28T04:21:27;96785.88;;;-1.82;88.91
70954;BME280;58618;47.490;8.736;2023-02-28T04:23:56;96820.78;;;-1.64;88.89
70954;BME280;58618;47.490;8.736;2023-02-28T04:26:28;96801.88;;;-1.75;89.00
70954;BME280;58618;47.490;8.736;2023-02-28T04:28:56;96831.91;;;-1.59;89.35
70954;BME280;58618;47.490;8.736;2023-02-28T04:31:24;96812.56;;;-1.73;89.57
70954;BME280;58618;47.490;8.736;2023-02-28T04:33:51;96803.78;;;-1.77;89.34
70954;BME280;58618;47.490;8.736;2023-02-28T04:36:18;96832.47;;;-1.57;89.72
70954;BME280;58618;47.490;8.736;2023-02-28T04:38:46;96803.19;;;-1.79;89.22
70954;BME280;58618;47.490;8.736;2023-02-28T04:41:15;96820.38;;;-1.68;89.17
70954;BME280;58618;47.490;8.736;2023-02-28T04:43:45;96818.03;;;-1.69;89.35
70954;BME280;58618;47.490;8.736;2023-02-28T04:46:13;96810.41;;;-1.76;89.23
70954;BME280;58618;47.490;8.736;2023-02-28T04:48:41;96836.34;;;-1.61;89.42
70954;BME280;58618;47.490;8.736;2023-02-28T04:51:12;96831.31;;;-1.61;89.04
70954;BME280;58618;47.490;8.736;2023-02-28T04:53:40;96829.72;;;-1.62;89.45
70954;BME280;58618;47.490;8.736;2023-02-28T04:56:11;96835.19;;;-1.65;89.40
70954;BME280;58618;47.490;8.736;2023-02-28T04:58:40;96814.69;;;-1.77;89.38
70954;BME280;58618;47.490;8.736;2023-02-28T05:01:19;96838.31;;;-1.56;89.20
70954;BME280;58618;47.490;8.736;2023-02-28T05:03:47;96839.50;;;-1.59;89.36
70954;BME280;58618;47.490;8.736;2023-02-28T05:06:15;96819.75;;;-1.77;89.11
70954;BME280;58618;47.490;8.736;2023-02-28T05:08:42;96824.03;;;-1.77;88.94
70954;BME280;58618;47.490;8.736;2023-02-28T05:11:15;96835.19;;;-1.65;89.79
70954;BME280;58618;47.490;8.736;2023-02-28T05:13:48;96841.03;;;-1.58;89.38
70954;BME280;58618;47.490;8.736;2023-02-28T05:16:15;96858.94;;;-1.53;89.49
70954;BME280;58618;47.490;8.736;2023-02-28T05:18:43;96825.41;;;-1.68;89.07
70954;BME280;58618;47.490;8.736;2023-02-28T05:21:26;96861.69;;;-1.48;88.57
70954;BME280;58618;47.490;8.736;2023-02-28T05:23:54;96863.25;;;-1.47;89.16
70954;BME280;58618;47.490;8.736;2023-02-28T05:26:22;96857.19;;;-1.52;89.18
70954;BME280;58618;47.490;8.736;2023-02-28T05:28:50;96849.22;;;-1.56;88.86
70954;BME280;58618;47.490;8.736;2023-02-28T05:31:18;96858.72;;;-1.58;88.71
70954;BME280;58618;47.490;8.736;2023-02-28T05:33:45;96867.13;;;-1.51;88.75
70954;BME280;58618;47.490;8.736;2023-02-28T05:36:12;96869.06;;;-1.53;88.64
70954;BME280;58618;47.490;8.736;2023-02-28T05:38:39;96872.97;;;-1.50;89.57
70954;BME280;58618;47.490;8.736;2023-02-28T05:41:07;96864.00;;;-1.53;89.23
70954;BME280;58618;47.490;8.736;2023-02-28T05:43:34;96855.97;;;-1.63;89.41
70954;BME280;58618;47.490;8.736;2023-02-28T05:46:05;96867.53;;;-1.54;89.25
70954;BME280;58618;47.490;8.736;2023-02-28T05:48:34;96866.75;;;-1.54;88.79
70954;BME280;58618;47.490;8.736;2023-02-28T05:51:02;96850.34;;;-1.65;88.43
70954;BME280;58618;47.490;8.736;2023-02-28T05:53:30;96866.75;;;-1.54;88.86
70954;BME280;58618;47.490;8.736;2023-02-28T05:55:58;96874.34;;;-1.54;88.33
70954;BME280;58618;47.490;8.736;2023-02-28T05:58:25;96832.34;;;-1.83;88.41
70954;BME280;58618;47.490;8.736;2023-02-28T06:00:56;96885.59;;;-1.57;88.83
70954;BME280;58618;47.490;8.736;2023-02-28T06:03:25;96892.44;;;-1.51;88.68
70954;BME280;58618;47.490;8.736;2023-02-28T06:05:53;96880.94;;;-1.53;89.02
70954;BME280;58618;47.490;8.736;2023-02-28T06:08:20;96891.81;;;-1.53;88.61
70954;BME280;58618;47.490;8.736;2023-02-28T06:10:48;96892.63;;;-1.52;87.75
70954;BME280;58618;47.490;8.736;2023-02-28T06:13:15;96885.75;;;-1.58;88.11
70954;BME280;58618;47.490;8.736;2023-02-28T06:15:42;96870.94;;;-1.68;88.23
70954;BME280;58618;47.490;8.736;2023-02-28T06:18:09;96869.84;;;-1.59;87.93
70954;BME280;58618;47.490;8.736;2023-02-28T06:20:38;96889.06;;;-1.58;86.83
70954;BME280;58618;47.490;8.736;2023-02-28T06:23:06;96868.56;;;-1.76;87.07
70954;BME280;58618;47.490;8.736;2023-02-28T06:25:33;96877.19;;;-1.64;86.87
70954;BME280;58618;47.490;8.736;2023-02-28T06:28:00;96863.28;;;-1.81;87.21
70954;BME280;58618;47.490;8.736;2023-02-28T06:30:27;96891.59;;;-1.58;86.72
70954;BME280;58618;47.490;8.736;2023-02-28T06:32:57;96867.59;;;-1.75;87.13
70954;BME280;58618;47.490;8.736;2023-02-28T06:35:24;96902.50;;;-1.57;87.11
70954;BME280;58618;47.490;8.736;2023-02-28T06:37:53;96909.09;;;-1.63;86.78
70954;BME280;58618;47.490;8.736;2023-02-28T06:40:21;96926.44;;;-1.60;86.77
70954;BME280;58618;47.490;8.736;2023-02-28T06:42:48;96918.47;;;-1.57;87.30
70954;BME280;58618;47.490;8.736;2023-02-28T06:45:16;96885.09;;;-1.74;87.60
70954;BME280;58618;47.490;8.736;2023-02-28T06:47:44;96922.19;;;-1.53;86.86
70954;BME280;58618;47.490;8.736;2023-02-28T06:50:12;96877.28;;;-1.85;87.19
70954;BME280;58618;47.490;8.736;2023-02-28T06:52:40;96912.22;;;-1.61;86.93
70954;BME280;58618;47.490;8.736;2023-02-28T06:55:09;96880.41;;;-1.77;87.04
70954;BME280;58618;47.490;8.736;2023-02-28T06:57:37;96929.41;;;-1.50;86.98
70954;BME280;58618;47.490;8.736;2023-02-28T07:00:07;96908.72;;;-1.60;87.34
70954;BME280;58618;47.490;8.736;2023-02-28T07:02:35;96902.31;;;-1.56;86.88
70954;BME280;58618;47.490;8.736;2023-02-28T07:05:04;96933.72;;;-1.44;86.54
70954;BME280;58618;47.490;8.736;2023-02-28T07:07:31;96909.09;;;-1.63;86.31
70954;BME280;58618;47.490;8.736;2023-02-28T07:09:59;96891.94;;;-1.67;86.65
70954;BME280;58618;47.490;8.736;2023-02-28T07:12:28;96904.47;;;-1.59;86.30
70954;BME280;58618;47.490;8.736;2023-02-28T07:14:55;96897.00;;;-1.67;86.66
70954;BME280;58618;47.490;8.736;2023-02-28T07:17:22;96935.03;;;-1.48;86.25
70954;BME280;58618;47.490;8.736;2023-02-28T07:19:50;96961.78;;;-1.39;86.51
70954;BME280;58618;47.490;8.736;2023-02-28T07:22:17;96943.69;;;-1.36;85.93
70954;BME280;58618;47.490;8.736;2023-02-28T07:24:45;96932.53;;;-1.48;87.08
70954;BME280;58618;47.490;8.736;2023-02-28T07:27:12;96954.03;;;-1.31;85.94
70954;BME280;58618;47.490;8.736;2023-02-28T07:29:53;96916.16;;;-1.52;86.89
70954;BME280;58618;47.490;8.736;2023-02-28T07:32:20;96900.53;;;-1.62;86.47
70954;BME280;58618;47.490;8.736;2023-02-28T07:34:48;96944.72;;;-1.23;86.31
70954;BME280;58618;47.490;8.736;2023-02-28T07:37:15;96946.66;;;-1.25;86.31
70954;BME280;58618;47.490;8.736;2023-02-28T07:39:43;96949.94;;;-1.32;86.59
70954;BME280;58618;47.490;8.736;2023-02-28T07:42:10;96955.06;;;-1.18;86.55
70954;BME280;58618;47.490;8.736;2023-02-28T07:44:39;96931.44;;;-1.39;86.09
70954;BME280;58618;47.490;8.736;2023-02-28T07:47:09;96920.88;;;-1.49;86.36
70954;BME280;58618;47.490;8.736;2023-02-28T07:49:37;96935.75;;;-1.33;85.77
70954;BME280;58618;47.490;8.736;2023-02-28T07:52:10;96944.28;;;-1.34;85.86
70954;BME280;58618;47.490;8.736;2023-02-28T07:54:39;96934.91;;;-1.40;86.88
70954;BME280;58618;47.490;8.736;2023-02-28T07:57:09;96939.78;;;-1.38;86.49
70954;BME280;58618;47.490;8.736;2023-02-28T07:59:36;96959.75;;;-1.15;86.47
70954;BME280;58618;47.490;8.736;2023-02-28T08:02:04;96943.09;;;-1.38;86.13
70954;BME280;58618;47.490;8.736;2023-02-28T08:04:33;96934.09;;;-1.47;86.08
70954;BME280;58618;47.490;8.736;2023-02-28T08:07:01;96960.88;;;-1.24;86.60
70954;BME280;58618;47.490;8.736;2023-02-28T08:09:29;96971.44;;;-1.14;86.09
70954;BME280;58618;47.490;8.736;2023-02-28T08:11:56;96974.59;;;-1.12;87.06
70954;BME280;58618;47.490;8.736;2023-02-28T08:14:24;96975.59;;;-1.00;85.85
70954;BME280;58618;47.490;8.736;2023-02-28T08:16:52;96945.47;;;-1.30;85.42
70954;BME280;58618;47.490;8.736;2023-02-28T08:19:20;96971.34;;;-0.93;85.63
70954;BME280;58618;47.490;8.736;2023-02-28T08:21:49;96943.34;;;-1.26;85.46
70954;BME280;58618;47.490;8.736;2023-02-28T08:24:17;96951.38;;;-1.16;86.06
70954;BME280;58618;47.490;8.736;2023-02-28T08:26:44;96938.63;;;-1.36;84.84
70954;BME280;58618;47.490;8.736;2023-02-28T08:29:13;96951.31;;;-1.29;85.93
70954;BME280;58618;47.490;8.736;2023-02-28T08:31:51;96949.56;;;-1.29;84.97
70954;BME280;58618;47.490;8.736;2023-02-28T08:34:20;96947.66;;;-1.20;85.16
70954;BME280;58618;47.490;8.736;2023-02-28T08:36:50;96931.53;;;-1.19;83.94
70954;BME280;58618;47.490;8.736;2023-02-28T08:39:17;96976.06;;;-0.83;83.86
70954;BME280;58618;47.490;8.736;2023-02-28T08:41:46;96981.34;;;-0.85;84.67
70954;BME280;58618;47.490;8.736;2023-02-28T08:44:14;96972.97;;;-0.79;83.76
70954;BME280;58618;47.490;8.736;2023-02-28T08:46:45;96965.47;;;-1.07;83.58
70954;BME280;58618;47.490;8.736;2023-02-28T08:49:13;96952.97;;;-1.08;83.53
70954;BME280;58618;47.490;8.736;2023-02-28T08:51:42;96928.81;;;-1.17;83.86
70954;BME280;58618;47.490;8.736;2023-02-28T08:54:11;96972.19;;;-0.86;82.87
70954;BME280;58618;47.490;8.736;2023-02-28T08:56:43;96912.69;;;-1.03;83.42
70954;BME280;58618;47.490;8.736;2023-02-28T08:59:11;96904.28;;;-1.17;82.92
70954;BME280;58618;47.490;8.736;2023-02-28T09:01:39;96973.84;;;-0.46;82.40
70954;BME280;58618;47.490;8.736;2023-02-28T09:04:09;96974.16;;;-0.68;81.79
70954;BME280;58618;47.490;8.736;2023-02-28T09:06:37;96949.19;;;-0.85;81.90
70954;BME280;58618;47.490;8.736;2023-02-28T09:09:05;96951.59;;;-0.70;80.99
70954;BME280;58618;47.490;8.736;2023-02-28T09:11:36;96932.13;;;-1.10;83.04
70954;BME280;58618;47.490;8.736;2023-02-28T09:14:04;96981.09;;;-0.97;82.85
70954;BME280;58618;47.490;8.736;2023-02-28T09:16:33;96995.03;;;-0.66;81.81
70954;BME280;58618;47.490;8.736;2023-02-28T09:19:01;96971.78;;;-0.83;82.44
70954;BME280;58618;47.490;8.736;2023-02-28T09:21:42;96993.00;;;-0.91;82.85
70954;BME280;58618;47.490;8.736;2023-02-28T09:24:09;97018.00;;;-0.68;82.07
70954;BME280;58618;47.490;8.736;2023-02-28T09:26:41;96988.38;;;-0.74;82.89
70954;BME280;58618;47.490;8.736;2023-02-28T09:29:09;96952.59;;;-1.05;82.36
70954;BME280;58618;47.490;8.736;2023-02-28T09:31:37;97011.22;;;-0.61;82.75
70954;BME280;58618;47.490;8.736;2023-02-28T09:34:04;96994.44;;;-0.68;82.48
70954;BME280;58618;47.490;8.736;2023-02-28T09:36:32;97019.09;;;-0.36;81.80
70954;BME280;58618;47.490;8.736;2023-02-28T09:39:00;97006.19;;;-0.54;81.84
70954;BME280;58618;47.490;8.736;2023-02-28T09:41:32;96988.22;;;-0.66;82.00
70954;BME280;58618;47.490;8.736;2023-02-28T09:44:10;96974.59;;;-0.65;81.41
70954;BME280;58618;47.490;8.736;2023-02-28T09:46:44;96991.72;;;-0.67;80.95
70954;BME280;58618;47.490;8.736;2023-02-28T09:49:16;97003.09;;;-0.50;81.29
70954;BME280;58618;47.490;8.736;2023-02-28T09:51:50;97001.59;;;-0.78;80.30
70954;BME280;58618;47.490;8.736;2023-02-28T09:54:20;97010.91;;;-0.45;79.82
70954;BME280;58618;47.490;8.736;2023-02-28T09:56:50;97021.97;;;-0.59;80.67
70954;BME280;58618;47.490;8.736;2023-02-28T09:59:31;96991.31;;;-0.70;80.28
70954;BME280;58618;47.490;8.736;2023-02-28T10:02:12;97025.25;;;-0.65;80.26
70954;BME280;58618;47.490;8.736;2023-02-28T10:04:47;96992.50;;;-0.66;80.19
70954;BME280;58618;47.490;8.736;2023-02-28T10:07:37;97017.53;;;-0.37;79.95
70954;BME280;58618;47.490;8.736;2023-02-28T10:10:17;97017.53;;;-0.44;80.17
70954;BME280;58618;47.490;8.736;2023-02-28T10:12:47;97019.78;;;-0.62;80.03
70954;BME280;58618;47.490;8.736;2023-02-28T10:15:17;97015.91;;;-0.58;80.60
70954;BME280;58618;47.490;8.736;2023-02-28T10:17:47;96979.97;;;-0.81;81.03
70954;BME280;58618;47.490;8.736;2023-02-28T10:20:20;96994.06;;;-0.65;80.54
70954;BME280;58618;47.490;8.736;2023-02-28T10:22:52;97027.22;;;-0.60;80.78
70954;BME280;58618;47.490;8.736;2023-02-28T10:25:22;97020.19;;;-0.65;81.25
70954;BME280;58618;47.490;8.736;2023-02-28T10:27:50;97039.13;;;-0.48;81.08
70954;BME280;58618;47.490;8.736;2023-02-28T10:30:21;97034.31;;;-0.36;80.12
70954;BME280;58618;47.490;8.736;2023-02-28T10:32:51;97022.94;;;-0.60;80.93
70954;BME280;58618;47.490;8.736;2023-02-28T10:35:21;97048.28;;;-0.53;81.65
70954;BME280;58618;47.490;8.736;2023-02-28T10:37:50;97053.44;;;-0.33;81.71
70954;BME280;58618;47.490;8.736;2023-02-28T10:40:31;97030.72;;;-0.61;82.66
70954;BME280;58618;47.490;8.736;2023-02-28T10:43:00;97024.84;;;-0.62;82.42
70954;BME280;58618;47.490;8.736;2023-02-28T10:45:30;97042.06;;;-0.51;82.55
70954;BME280;58618;47.490;8.736;2023-02-28T10:48:02;97041.94;;;-0.77;82.44
70954;BME280;58618;47.490;8.736;2023-02-28T10:50:37;97040.03;;;-0.68;83.09
70954;BME280;58618;47.490;8.736;2023-02-28T10:53:24;97052.41;;;-0.46;82.52
70954;BME280;58618;47.490;8.736;2023-02-28T10:56:01;97066.25;;;-0.48;81.65
70954;BME280;58618;47.490;8.736;2023-02-28T10:58:31;97034.59;;;-0.65;81.47
70954;BME280;58618;47.490;8.736;2023-02-28T11:01:00;97030.31;;;-0.65;82.57
70954;BME280;58618;47.490;8.736;2023-02-28T11:03:33;97039.66;;;-0.65;82.88
70954;BME280;58618;47.490;8.736;2023-02-28T11:06:05;97025.97;;;-0.77;82.64
70954;BME280;58618;47.490;8.736;2023-02-28T11:08:34;97018.53;;;-0.86;82.68
70954;BME280;58618;47.490;8.736;2023-02-28T11:11:10;97037.69;;;-0.70;82.58
70954;BME280;58618;47.490;8.736;2023-02-28T11:13:37;97016.69;;;-0.64;82.36
70954;BME280;58618;47.490;8.736;2023-02-28T11:16:09;97019.66;;;-0.54;81.90
70954;BME280;58618;47.490;8.736;2023-02-28T11:18:41;97040.56;;;-0.32;81.31
70954;BME280;58618;47.490;8.736;2023-02-28T11:21:16;97028.06;;;-0.40;80.94
70954;BME280;58618;47.490;8.736;2023-02-28T11:23:46;97029.25;;;-0.43;80.85
70954;BME280;58618;47.490;8.736;2023-02-28T11:26:16;97055.72;;;-0.45;80.65
70954;BME280;58618;47.490;8.736;2023-02-28T11:29:08;97049.56;;;-0.23;80.81
70954;BME280;58618;47.490;8.736;2023-02-28T11:31:39;97034.25;;;-0.56;80.86
70954;BME280;58618;47.490;8.736;2023-02-28T11:34:25;97014.78;;;-0.49;81.84
70954;BME280;58618;47.490;8.736;2023-02-28T11:36:56;97044.25;;;-0.34;80.76
70954;BME280;58618;47.490;8.736;2023-02-28T11:39:26;97012.47;;;-0.44;80.96
70954;BME280;58618;47.490;8.736;2023-02-28T11:42:27;97008.56;;;-0.39;80.46
70954;BME280;58618;47.490;8.736;2023-02-28T11:45:11;97023.44;;;-0.23;80.20
70954;BME280;58618;47.490;8.736;2023-02-28T11:47:48;97037.34;;;-0.06;78.83
70954;BME280;58618;47.490;8.736;2023-02-28T11:50:31;96998.84;;;-0.29;78.94
70954;BME280;58618;47.490;8.736;2023-02-28T11:53:10;97033.56;;;-0.23;80.25
70954;BME280;58618;47.490;8.736;2023-02-28T11:55:39;97031.53;;;-0.48;80.70
70954;BME280;58618;47.490;8.736;2023-02-28T11:58:20;97037.47;;;-0.27;81.37
70954;BME280;58618;47.490;8.736;2023-02-28T12:01:15;97027.13;;;-0.32;80.80
70954;BME280;58618;47.490;8.736;2023-02-28T12:04:17;97046.88;;;-0.08;80.39
70954;BME280;58618;47.490;8.736;2023-02-28T12:06:57;97021.53;;;-0.08;79.23
70954;BME280;58618;47.490;8.736;2023-02-28T12:09:46;97047.22;;;-0.24;80.46
70954;BME280;58618;47.490;8.736;2023-02-28T12:12:27;97021.88;;;-0.24;80.12
70954;BME280;58618;47.490;8.736;2023-02-28T12:15:32;97040.75;;;-0.33;80.53
70954;BME280;58618;47.490;8.736;2023-02-28T12:18:20;97046.84;;;-0.15;81.14
70954;BME280;58618;47.490;8.736;2023-02-28T12:20:55;97012.34;;;-0.22;80.73
70954;BME280;58618;47.490;8.736;2023-02-28T12:23:44;97013.31;;;-0.17;80.50
70954;BME280;58618;47.490;8.736;2023-02-28T12:26:23;97002.38;;;-0.24;79.39
70954;BME280;58618;47.490;8.736;2023-02-28T12:28:59;97037.94;;;0.09;78.70
70954;BME280;58618;47.490;8.736;2023-02-28T12:31:31;96987.97;;;-0.10;79.60
70954;BME280;58618;47.490;8.736;2023-02-28T12:34:06;97002.81;;;0.06;77.77
70954;BME280;58618;47.490;8.736;2023-02-28T12:36:39;97046.16;;;0.51;77.90
70954;BME280;58618;47.490;8.736;2023-02-28T12:39:11;96999.81;;;-0.30;79.92
70954;BME280;58618;47.490;8.736;2023-02-28T12:41:43;97034.81;;;0.07;79.69
70954;BME280;58618;47.490;8.736;2023-02-28T12:44:15;97000.06;;;-0.12;79.28
70954;BME280;58618;47.490;8.736;2023-02-28T12:46:50;96996.53;;;-0.24;79.16
70954;BME280;58618;47.490;8.736;2023-02-28T12:49:23;97039.09;;;0.07;79.34
70954;BME280;58618;47.490;8.736;2023-02-28T12:51:54;97032.47;;;-0.01;79.16
70954;BME280;58618;47.490;8.736;2023-02-28T12:54:26;96985.44;;;-0.10;78.69
70954;BME280;58618;47.490;8.736;2023-02-28T12:57:02;96994.22;;;-0.06;79.13
70954;BME280;58618;47.490;8.736;2023-02-28T12:59:38;97032.91;;;0.35;77.90
70954;BME280;58618;47.490;8.736;2023-02-28T13:02:26;97041.47;;;0.34;78.35
70954;BME280;58618;47.490;8.736;2023-02-28T13:05:32;96990.88;;;-0.20;79.50
70954;BME280;58618;47.490;8.736;2023-02-28T13:08:28;97002.25;;;0.17;77.98
70954;BME280;58618;47.490;8.736;2023-02-28T13:11:03;97038.91;;;0.21;77.80
70954;BME280;58618;47.490;8.736;2023-02-28T13:13:31;97004.38;;;-0.06;79.34
70954;BME280;58618;47.490;8.736;2023-02-28T13:16:00;97003.59;;;0.00;79.25
70954;BME280;58618;47.490;8.736;2023-02-28T13:18:35;97010.22;;;-0.06;79.27
70954;BME280;58618;47.490;8.736;2023-02-28T13:21:04;96989.53;;;-0.22;78.65
70954;BME280;58618;47.490;8.736;2023-02-28T13:23:40;97000.88;;;0.08;79.88
70954;BME280;58618;47.490;8.736;2023-02-28T13:26:08;97023.50;;;0.42;78.58